Portada
METAR-TAF:

METAR-TAF

Aeroports :

Key West, Florida, Estats Units d'Amèrica

latitud: 24-33-13N, longitud: 081-45-13W, altitud: 1 m

Observació

L'informe es va fer fa 37 minuts, a les 07:53 UTC
Vent 8 kt del Est/Sud-Est
Temperatura 29°C
Humitat 74%
Pressió 1016 hPa
Visibilitat: 16.1 km
Núvols disperses a una alçada de 2500 ft
Núvols disperses a una alçada de 3000 ft

METAR: KEYW 200753Z 12008KT 10SM SCT025 SCT030 29/24 A3001 RMK AO2 SLP160 T02890239

Hora: 04:30 (08:30 UTC)

Pronòstic

L'informe es va fer fa 1 hora i 15 minuts, a les 07:15 UTC
Pronòstic vàlid del 20 a les 07 UTC al 21 a les 06 UTC
Vent 12 kt del Est/Sud-Est
Visibilitat: 10 km
Núvols disperses a una alçada de 2500 ft
xàfecs en les proximitats
A partir de les 20 a les 1400 UTC
Vent 10 kt del Est/Sud-Est
Visibilitat: 10 km
Escasses núvols a una alçada de 2500 ft

TAF: KEYW 200715Z 2007/2106 12012KT P6SM VCSH SCT025 FM201400 11010KT P6SM FEW025

Observacions i pronòstics meteorològics de més de 4000 aeroports (METAR i TAF).

Les estacions disponibles són els punts grocs i vermells al mapa.

Posi el ratolí al punt desitjat per veure el nom de l'estació.

Feu clic per veure les observacions i els pronòstics meteorològics.

Per canviar el mapa: feu clic els botons verds amb una creu de color negre per apropar; al botó verd amb un guió per allunyar la imatge; o en les fletxes verdes per a mapes adjacents.


METAR-TAF: